Time;durP1;ratioP1;P1;durP2;ratioP2;P2;SDS_P1;SDS_P2;PMS_P1;PMS_P2;Temp;Humidity;BMP_temperature;BMP_pressure;BME280_temperature;BME280_humidity;BME280_pressure;Samples;Min_cycle;Max_cycle;Signal;HPM_P1;HPM_P2
2023/05/07 00:01:59;;;;;;;39.70;25.58;;;13.00;99.90;;;;;;4976973;28;20200;-77
2023/05/07 00:04:25;;;;;;;38.08;26.60;;;13.00;99.90;;;;;;4957582;28;20639;-77
2023/05/07 00:06:51;;;;;;;36.00;25.80;;;13.00;99.90;;;;;;4973759;28;20245;-75
2023/05/07 00:09:17;;;;;;;36.47;26.02;;;13.00;99.90;;;;;;4989125;28;20188;-75
2023/05/07 00:11:42;;;;;;;39.22;26.50;;;12.90;99.90;;;;;;4977030;28;20342;-76
2023/05/07 00:14:08;;;;;;;38.65;26.63;;;12.90;99.90;;;;;;4977000;28;20235;-77
2023/05/07 00:16:34;;;;;;;40.42;26.20;;;12.90;99.90;;;;;;4975859;28;20185;-77
2023/05/07 00:19:00;;;;;;;39.00;26.95;;;12.90;99.90;;;;;;4976423;28;20232;-76
2023/05/07 00:21:28;;;;;;;44.50;26.70;;;12.90;99.90;;;;;;4960250;28;20189;-77
2023/05/07 00:23:54;;;;;;;42.08;27.27;;;12.80;99.90;;;;;;4945041;28;20181;-75
2023/05/07 00:26:20;;;;;;;41.10;27.30;;;12.80;99.90;;;;;;4975894;28;20229;-77
2023/05/07 00:28:49;;;;;;;44.95;28.00;;;12.80;99.90;;;;;;4972912;28;20264;-77
2023/05/07 00:31:15;;;;;;;45.10;28.20;;;12.70;99.90;;;;;;4976075;28;20347;-76
2023/05/07 00:33:41;;;;;;;43.63;27.50;;;12.70;99.90;;;;;;4960445;28;20200;-76
2023/05/07 00:36:07;;;;;;;44.08;28.60;;;12.70;99.90;;;;;;4992655;28;20188;-76
2023/05/07 00:38:33;;;;;;;40.67;28.13;;;12.70;99.90;;;;;;4974592;28;20185;-77
2023/05/07 00:40:58;;;;;;;43.22;28.80;;;12.70;99.90;;;;;;4944368;28;20323;-77
2023/05/07 00:43:24;;;;;;;45.15;29.23;;;12.70;99.90;;;;;;4960193;28;20192;-78
2023/05/07 00:45:50;;;;;;;42.50;29.00;;;12.70;99.90;;;;;;4976451;28;20182;-77
2023/05/07 00:48:16;;;;;;;45.78;30.98;;;12.60;99.90;;;;;;4974688;28;20185;-77
2023/05/07 00:50:42;;;;;;;45.05;29.45;;;12.60;99.90;;;;;;4959505;28;20213;-77
2023/05/07 00:53:08;;;;;;;44.40;30.02;;;12.60;99.90;;;;;;4959999;28;20200;-77
2023/05/07 00:55:36;;;;;;;43.17;29.75;;;12.60;99.90;;;;;;4976133;28;20240;-76
2023/05/07 00:58:02;;;;;;;40.17;29.20;;;12.60;99.90;;;;;;4993067;28;20227;-76
2023/05/07 01:00:28;;;;;;;41.08;28.75;;;12.60;99.90;;;;;;4976061;28;20268;-77
2023/05/07 01:02:55;;;;;;;44.30;29.35;;;12.60;99.90;;;;;;4960094;28;20541;-76
2023/05/07 01:05:23;;;;;;;45.15;30.15;;;12.60;99.90;;;;;;4976352;28;20232;-76
2023/05/07 01:07:51;;;;;;;45.03;31.88;;;12.60;99.90;;;;;;4959577;28;20209;-77
2023/05/07 01:10:18;;;;;;;45.72;30.63;;;12.60;99.90;;;;;;4974988;28;20208;-77
2023/05/07 01:12:45;;;;;;;43.72;31.48;;;12.60;99.90;;;;;;4944183;28;20223;-77
2023/05/07 01:15:11;;;;;;;46.28;32.75;;;12.50;99.90;;;;;;4958235;28;20177;-77
2023/05/07 01:17:39;;;;;;;45.83;31.33;;;12.50;99.90;;;;;;4976213;28;20185;-77
2023/05/07 01:20:08;;;;;;;48.10;33.33;;;12.50;99.90;;;;;;4959287;28;20201;-78
2023/05/07 01:22:36;;;;;;;46.03;32.55;;;12.50;99.90;;;;;;4943408;28;20264;-77
2023/05/07 01:25:03;;;;;;;48.17;33.35;;;12.50;99.90;;;;;;4991189;28;20251;-77
2023/05/07 01:27:31;;;;;;;50.47;34.10;;;12.50;99.90;;;;;;4959712;28;20188;-76
2023/05/07 01:29:56;;;;;;;53.70;34.47;;;12.50;99.90;;;;;;4965208;28;20205;-77
2023/05/07 01:32:41;;;;;;;49.92;34.53;;;12.50;99.90;;;;;;4943948;28;20196;-76
2023/05/07 01:35:11;;;;;;;46.85;33.38;;;12.50;99.90;;;;;;4974658;28;20698;-76
2023/05/07 01:37:39;;;;;;;44.13;31.92;;;12.40;99.90;;;;;;4991655;28;20181;-76
2023/05/07 01:40:07;;;;;;;46.33;32.10;;;12.50;99.90;;;;;;4991932;28;20189;-77
2023/05/07 01:42:32;;;;;;;47.42;32.58;;;12.40;99.90;;;;;;4975580;28;20208;-77
2023/05/07 01:44:59;;;;;;;44.97;30.23;;;12.40;99.90;;;;;;4974316;28;20181;-77
2023/05/07 01:47:26;;;;;;;43.70;30.95;;;12.40;99.90;;;;;;4975688;28;20177;-77
2023/05/07 01:49:52;;;;;;;46.35;31.15;;;12.40;99.90;;;;;;4975572;28;20209;-77
2023/05/07 01:52:18;;;;;;;44.33;31.45;;;12.40;99.90;;;;;;4974024;28;20236;-76
2023/05/07 01:54:43;;;;;;;43.78;30.50;;;12.30;99.90;;;;;;4958980;28;20222;-77
2023/05/07 01:57:09;;;;;;;43.05;30.08;;;12.30;99.90;;;;;;4975911;28;20193;-77
2023/05/07 01:59:36;;;;;;;43.67;30.65;;;12.30;99.90;;;;;;4975345;28;20201;-75
2023/05/07 02:02:01;;;;;;;48.40;32.03;;;12.20;99.90;;;;;;4958609;28;20178;-75
2023/05/07 02:04:28;;;;;;;46.03;31.73;;;12.20;99.90;;;;;;4978276;28;20189;-75
2023/05/07 02:06:53;;;;;;;49.67;31.92;;;12.20;99.90;;;;;;4979061;28;20192;-75
2023/05/07 02:09:20;;;;;;;49.33;32.28;;;12.30;99.90;;;;;;4978733;28;20213;-76
2023/05/07 02:11:48;;;;;;;50.95;32.00;;;12.20;99.90;;;;;;4977491;28;20193;-76
2023/05/07 02:14:15;;;;;;;48.00;32.80;;;12.20;99.90;;;;;;4995334;28;20195;-77
2023/05/07 02:16:41;;;;;;;47.00;31.90;;;12.20;99.90;;;;;;4981208;28;20551;-76
2023/05/07 02:19:08;;;;;;;48.63;32.22;;;12.20;99.90;;;;;;4962887;28;20268;-76
2023/05/07 02:21:34;;;;;;;47.28;32.25;;;12.30;99.90;;;;;;4962094;28;20276;-77
2023/05/07 02:24:00;;;;;;;49.13;32.83;;;12.20;99.90;;;;;;4962017;28;20190;-76
2023/05/07 02:26:26;;;;;;;49.47;31.45;;;12.20;99.90;;;;;;4961547;28;20295;-76
2023/05/07 02:28:52;;;;;;;48.17;31.48;;;12.20;99.90;;;;;;4959913;28;20200;-76
2023/05/07 02:31:18;;;;;;;44.45;31.13;;;12.20;99.90;;;;;;4975303;28;20260;-76
2023/05/07 02:33:45;;;;;;;47.28;33.42;;;12.20;99.90;;;;;;4991794;28;20201;-76
2023/05/07 02:36:12;;;;;;;47.25;33.33;;;12.20;99.90;;;;;;4962226;28;20177;-76
2023/05/07 02:38:44;;;;;;;45.03;31.85;;;12.20;99.90;;;;;;4978633;28;20189;-76
2023/05/07 02:41:10;;;;;;;50.03;33.53;;;12.20;99.90;;;;;;4996087;28;20247;-76
2023/05/07 02:43:36;;;;;;;52.08;34.83;;;12.20;99.90;;;;;;4977625;28;20332;-76
2023/05/07 02:46:06;;;;;;;51.67;34.38;;;12.20;99.90;;;;;;4978221;28;20280;-76
2023/05/07 02:48:34;;;;;;;56.05;36.08;;;12.20;99.90;;;;;;4977958;28;20181;-76
2023/05/07 02:51:00;;;;;;;51.28;35.80;;;12.20;99.90;;;;;;4977454;28;20219;-76
2023/05/07 02:53:27;;;;;;;51.67;35.92;;;12.20;99.90;;;;;;4962319;28;20557;-77
2023/05/07 02:55:57;;;;;;;54.85;36.30;;;12.20;99.90;;;;;;4976058;28;20189;-77
2023/05/07 02:58:23;;;;;;;54.20;36.20;;;12.20;99.90;;;;;;4961840;28;20205;-76
2023/05/07 03:00:50;;;;;;;54.45;35.80;;;12.10;99.90;;;;;;4978102;28;20191;-76
2023/05/07 03:03:33;;;;;;;53.53;36.30;;;12.20;99.90;;;;;;4980204;28;20211;-76
2023/05/07 03:05:58;;;;;;;51.75;35.13;;;12.20;99.90;;;;;;4976049;28;20266;-76
2023/05/07 03:08:24;;;;;;;50.38;36.30;;;12.10;99.90;;;;;;4977456;28;20189;-76
2023/05/07 03:10:51;;;;;;;54.88;35.80;;;12.20;99.90;;;;;;4977782;28;20215;-77
2023/05/07 03:13:16;;;;;;;51.92;34.55;;;12.10;99.90;;;;;;4977585;28;20741;-77
2023/05/07 03:15:42;;;;;;;47.30;33.50;;;12.20;99.90;;;;;;4976336;28;20190;-76
2023/05/07 03:18:08;;;;;;;52.58;34.03;;;12.10;99.90;;;;;;4994355;28;20193;-78
2023/05/07 03:20:36;;;;;;;52.05;33.53;;;12.10;99.90;;;;;;4961108;28;20263;-77
2023/05/07 03:23:02;;;;;;;50.42;32.90;;;12.10;99.90;;;;;;4977418;28;20189;-76
2023/05/07 03:25:29;;;;;;;50.22;33.20;;;12.10;99.90;;;;;;4993931;28;20233;-78
2023/05/07 03:27:56;;;;;;;51.67;33.38;;;12.10;99.90;;;;;;4992990;28;20765;-76
2023/05/07 03:30:26;;;;;;;45.40;32.00;;;12.10;99.90;;;;;;4960629;28;20208;-78
2023/05/07 03:32:52;;;;;;;50.92;34.45;;;12.00;99.90;;;;;;4961168;28;20674;-76
2023/05/07 03:35:18;;;;;;;50.25;34.85;;;12.10;99.90;;;;;;4993573;28;20601;-77
2023/05/07 03:37:45;;;;;;;51.58;34.35;;;12.10;99.90;;;;;;4977437;28;20281;-77
2023/05/07 03:40:12;;;;;;;54.50;34.38;;;12.00;99.90;;;;;;4960174;28;20288;-77
2023/05/07 03:42:44;;;;;;;48.30;32.85;;;12.00;99.90;;;;;;4977398;28;20196;-77
2023/05/07 03:45:12;;;;;;;52.10;34.20;;;11.90;99.90;;;;;;4992876;28;20189;-82
2023/05/07 03:47:41;;;;;;;50.40;34.33;;;11.90;99.90;;;;;;4993552;28;20731;-76
2023/05/07 03:50:10;;;;;;;51.80;34.55;;;11.90;99.90;;;;;;4992858;28;20204;-77
2023/05/07 03:52:36;;;;;;;49.42;33.60;;;11.90;99.90;;;;;;4983726;28;20201;-78
2023/05/07 03:55:03;;;;;;;53.83;34.47;;;11.90;99.90;;;;;;4980546;28;20308;-77
2023/05/07 03:57:32;;;;;;;48.60;33.35;;;11.90;99.90;;;;;;4987335;28;20331;-77
2023/05/07 03:59:58;;;;;;;51.55;34.17;;;11.80;99.90;;;;;;4992807;28;20185;-77
2023/05/07 04:02:25;;;;;;;48.70;33.88;;;11.80;99.90;;;;;;4959037;28;20185;-77
2023/05/07 04:04:51;;;;;;;51.72;33.22;;;11.80;99.90;;;;;;4976437;28;20650;-77
2023/05/07 04:07:18;;;;;;;54.13;34.63;;;11.80;99.90;;;;;;4976540;28;20185;-77
2023/05/07 04:09:48;;;;;;;49.85;33.03;;;11.80;99.90;;;;;;4961201;28;20748;-77
2023/05/07 04:12:15;;;;;;;56.35;34.00;;;11.80;99.90;;;;;;4959259;28;20190;-77
2023/05/07 04:14:41;;;;;;;53.70;35.05;;;11.70;99.90;;;;;;4960196;28;20217;-77
2023/05/07 04:17:09;;;;;;;55.70;35.78;;;11.70;99.90;;;;;;4976422;28;20615;-77
2023/05/07 04:19:37;;;;;;;53.92;34.60;;;11.80;99.90;;;;;;4976183;28;20198;-81
2023/05/07 04:22:03;;;;;;;56.50;35.47;;;11.70;99.90;;;;;;4992306;28;20240;-77
2023/05/07 04:24:32;;;;;;;51.90;34.85;;;11.70;99.90;;;;;;4960128;28;20200;-76
2023/05/07 04:26:59;;;;;;;49.58;34.30;;;11.80;99.90;;;;;;4959057;28;20299;-79
2023/05/07 04:29:25;;;;;;;51.40;33.38;;;11.80;99.90;;;;;;4960667;28;20221;-77
2023/05/07 04:31:51;;;;;;;53.38;32.80;;;11.70;99.90;;;;;;4986656;28;20170;-77
2023/05/07 04:34:17;;;;;;;49.38;32.38;;;11.70;99.90;;;;;;4960078;28;20196;-76
2023/05/07 04:36:43;;;;;;;49.30;32.67;;;11.70;99.90;;;;;;4976242;28;20197;-76
2023/05/07 04:39:12;;;;;;;46.25;31.38;;;11.70;99.90;;;;;;4993660;28;20189;-77
2023/05/07 04:41:40;;;;;;;45.22;32.00;;;11.70;99.90;;;;;;4974640;28;20194;-78
2023/05/07 04:44:09;;;;;;;49.38;31.10;;;11.60;99.90;;;;;;4975186;28;20220;-77
2023/05/07 04:46:35;;;;;;;52.22;32.38;;;11.60;99.90;;;;;;4960365;28;20189;-76
2023/05/07 04:49:01;;;;;;;49.03;32.28;;;11.60;99.90;;;;;;4975817;28;20280;-76
2023/05/07 04:51:27;;;;;;;50.33;32.83;;;11.60;99.90;;;;;;4973693;28;20311;-82
2023/05/07 04:53:54;;;;;;;46.05;31.42;;;11.60;99.90;;;;;;4977829;28;20655;-77
2023/05/07 04:56:20;;;;;;;50.75;32.25;;;11.60;99.90;;;;;;4975725;28;20296;-77
2023/05/07 04:58:47;;;;;;;47.72;31.30;;;11.60;99.90;;;;;;4976163;28;20195;-78
2023/05/07 05:01:13;;;;;;;46.95;30.98;;;11.60;99.90;;;;;;4975117;28;20236;-78
2023/05/07 05:03:40;;;;;;;44.63;29.75;;;11.60;99.90;;;;;;4960155;28;20272;-78
2023/05/07 05:06:07;;;;;;;45.20;30.02;;;11.60;99.90;;;;;;4975541;28;20216;-77
2023/05/07 05:08:33;;;;;;;46.00;30.50;;;11.60;99.90;;;;;;4959851;28;20261;-77
2023/05/07 05:11:02;;;;;;;44.13;31.08;;;11.60;99.90;;;;;;4974594;28;20213;-76
2023/05/07 05:13:30;;;;;;;44.20;30.80;;;11.60;99.90;;;;;;4975887;28;20192;-77
2023/05/07 05:15:56;;;;;;;46.17;29.98;;;11.60;99.90;;;;;;4974302;28;20185;-76
2023/05/07 05:18:23;;;;;;;42.70;30.00;;;11.60;99.90;;;;;;4975765;28;20185;-78
2023/05/07 05:20:49;;;;;;;43.42;29.20;;;11.60;99.90;;;;;;4959295;28;20190;-78
2023/05/07 05:23:15;;;;;;;45.35;29.48;;;11.60;99.90;;;;;;4975272;28;20675;-78
2023/05/07 05:25:41;;;;;;;43.97;30.25;;;11.50;99.90;;;;;;4991294;28;20298;-77
2023/05/07 05:28:10;;;;;;;42.33;29.92;;;11.50;99.90;;;;;;4975223;28;20181;-78
2023/05/07 05:30:35;;;;;;;45.97;29.85;;;11.50;99.90;;;;;;4959126;28;20264;-77
2023/05/07 05:33:01;;;;;;;40.95;29.20;;;11.50;99.90;;;;;;4973894;28;20185;-77
2023/05/07 05:35:27;;;;;;;44.50;28.70;;;11.60;99.90;;;;;;4973601;28;20181;-76
2023/05/07 05:37:53;;;;;;;40.63;29.20;;;11.50;99.90;;;;;;4987696;28;20181;-77
2023/05/07 05:40:20;;;;;;;46.33;29.85;;;11.50;99.90;;;;;;4963520;28;20643;-77
2023/05/07 05:42:46;;;;;;;42.72;29.30;;;11.50;99.90;;;;;;4979451;28;20224;-77
2023/05/07 05:45:12;;;;;;;39.50;27.50;;;11.50;99.90;;;;;;4995672;28;20280;-76
2023/05/07 05:47:39;;;;;;;42.47;29.55;;;11.50;99.90;;;;;;4975283;28;20644;-76
2023/05/07 05:50:07;;;;;;;47.17;31.00;;;11.50;99.90;;;;;;4973780;28;20631;-77
2023/05/07 05:52:32;;;;;;;50.58;30.52;;;11.50;99.90;;;;;;4962100;28;20254;-76
2023/05/07 05:54:58;;;;;;;39.38;28.02;;;11.50;99.90;;;;;;4947466;28;21029;-77
2023/05/07 05:57:25;;;;;;;44.17;28.20;;;11.50;99.90;;;;;;4978433;28;20177;-78
2023/05/07 05:59:51;;;;;;;42.25;28.60;;;11.50;99.90;;;;;;4963324;28;20631;-76
2023/05/07 06:02:17;;;;;;;39.97;27.63;;;11.50;99.90;;;;;;4978596;28;20584;-76
2023/05/07 06:04:44;;;;;;;40.33;27.98;;;11.50;99.90;;;;;;4962676;28;20336;-78
2023/05/07 06:07:13;;;;;;;38.35;28.58;;;11.50;99.90;;;;;;4979455;28;20189;-76
2023/05/07 06:09:39;;;;;;;40.95;28.27;;;11.50;99.90;;;;;;4977246;28;20627;-75
2023/05/07 06:12:05;;;;;;;39.47;28.08;;;11.50;99.90;;;;;;4978685;28;20193;-75
2023/05/07 06:14:31;;;;;;;38.63;28.98;;;11.50;99.90;;;;;;4978804;28;20193;-76
2023/05/07 06:16:57;;;;;;;39.72;27.50;;;11.50;99.90;;;;;;4978907;28;20183;-75
2023/05/07 06:19:23;;;;;;;40.67;28.25;;;11.50;99.90;;;;;;4976875;28;20526;-75
2023/05/07 06:21:50;;;;;;;41.70;28.20;;;11.50;99.90;;;;;;4995606;28;20181;-76
2023/05/07 06:24:17;;;;;;;44.10;30.52;;;11.50;99.90;;;;;;4978792;28;20335;-76
2023/05/07 06:26:42;;;;;;;43.65;30.83;;;11.50;99.90;;;;;;4944608;28;20229;-76
2023/05/07 06:29:08;;;;;;;47.17;31.95;;;11.50;99.90;;;;;;4974194;28;20563;-77
2023/05/07 06:31:34;;;;;;;44.92;30.80;;;11.50;99.90;;;;;;4956286;28;20296;-76
2023/05/07 06:34:07;;;;;;;46.42;31.92;;;11.60;99.90;;;;;;4977379;28;20194;-76
2023/05/07 06:36:36;;;;;;;49.78;32.50;;;11.50;99.90;;;;;;4960433;28;20220;-76
2023/05/07 06:39:10;;;;;;;53.03;34.10;;;11.60;99.90;;;;;;4962558;28;20196;-76
2023/05/07 06:41:36;;;;;;;48.30;33.45;;;11.50;99.90;;;;;;4960580;28;20753;-76
2023/05/07 06:44:07;;;;;;;48.78;34.08;;;11.50;99.90;;;;;;4978078;28;20280;-76
2023/05/07 06:46:41;;;;;;;46.55;33.85;;;11.50;99.90;;;;;;4975716;28;20189;-76
2023/05/07 06:49:07;;;;;;;48.13;33.88;;;11.50;99.90;;;;;;4960451;28;20556;-78
2023/05/07 06:51:33;;;;;;;47.38;32.78;;;11.50;99.90;;;;;;4976675;28;20636;-75
2023/05/07 06:54:04;;;;;;;42.22;30.23;;;11.50;99.90;;;;;;4961535;28;20280;-76
2023/05/07 06:56:31;;;;;;;44.67;33.05;;;11.50;99.90;;;;;;4976494;28;20244;-77
2023/05/07 06:58:57;;;;;;;40.95;30.00;;;11.50;99.90;;;;;;4976674;28;20205;-75
2023/05/07 07:01:23;;;;;;;46.53;30.45;;;11.50;99.90;;;;;;4944623;28;20221;-76
2023/05/07 07:03:49;;;;;;;43.42;28.63;;;11.50;99.90;;;;;;4976892;28;20263;-76
2023/05/07 07:06:15;;;;;;;40.95;28.35;;;11.50;99.90;;;;;;4978633;28;20184;-75
2023/05/07 07:08:41;;;;;;;40.30;27.08;;;11.50;99.90;;;;;;4967580;28;20190;-77
2023/05/07 07:11:08;;;;;;;41.22;28.23;;;11.50;99.90;;;;;;4973953;28;20228;-76
2023/05/07 07:13:34;;;;;;;43.22;28.42;;;11.50;99.90;;;;;;4994378;28;20225;-83
2023/05/07 07:16:00;;;;;;;39.60;27.27;;;11.50;99.90;;;;;;4976740;28;20192;-86
2023/05/07 07:18:27;;;;;;;40.33;27.20;;;11.50;99.90;;;;;;4975978;28;20177;-81
2023/05/07 07:20:53;;;;;;;41.90;28.02;;;11.50;99.90;;;;;;4976770;28;20197;-78
2023/05/07 07:23:19;;;;;;;44.15;27.23;;;11.60;99.90;;;;;;4973046;28;20190;-78
2023/05/07 07:25:45;;;;;;;40.65;27.90;;;11.60;99.90;;;;;;4919370;28;1099024;-80
2023/05/07 07:28:12;;;;;;;39.28;27.80;;;11.60;99.90;;;;;;4952401;28;20201;-80
2023/05/07 07:30:39;;;;;;;44.55;27.65;;;11.60;99.90;;;;;;4946573;28;20761;-82
2023/05/07 07:33:08;;;;;;;44.83;27.80;;;11.60;99.90;;;;;;4977979;28;20185;-78
2023/05/07 07:35:36;;;;;;;43.75;27.85;;;11.60;99.90;;;;;;4977508;28;20192;-81
2023/05/07 07:38:04;;;;;;;40.30;27.75;;;11.60;99.90;;;;;;4975702;28;20651;-78
2023/05/07 07:40:30;;;;;;;42.03;27.10;;;11.60;99.90;;;;;;4977104;28;20197;-79
2023/05/07 07:42:56;;;;;;;43.17;27.90;;;11.60;99.90;;;;;;4946595;28;20197;-84
2023/05/07 07:45:23;;;;;;;43.10;28.35;;;11.60;99.90;;;;;;4961419;28;20232;-78
2023/05/07 07:47:50;;;;;;;44.55;28.77;;;11.60;99.90;;;;;;4961448;28;20186;-79
2023/05/07 07:50:16;;;;;;;43.40;28.83;;;11.60;99.90;;;;;;4976085;28;20215;-81
2023/05/07 07:52:42;;;;;;;45.13;29.20;;;11.70;99.90;;;;;;4960408;28;20260;-79
2023/05/07 07:55:09;;;;;;;44.30;28.15;;;11.60;99.90;;;;;;4960943;28;20555;-78
2023/05/07 07:57:35;;;;;;;42.35;27.90;;;11.70;99.90;;;;;;4977064;28;20193;-79
2023/05/07 08:00:02;;;;;;;42.45;27.65;;;11.70;99.90;;;;;;4956620;28;20308;-79
2023/05/07 08:02:31;;;;;;;43.35;28.33;;;11.70;99.90;;;;;;4958090;28;20339;-79
2023/05/07 08:04:57;;;;;;;45.38;29.60;;;11.70;99.90;;;;;;4977120;28;20554;-78
2023/05/07 08:07:23;;;;;;;42.33;27.73;;;11.80;99.90;;;;;;4976632;28;20189;-78
2023/05/07 08:09:49;;;;;;;42.80;28.02;;;11.80;99.90;;;;;;4992281;28;20314;-76
2023/05/07 08:12:17;;;;;;;42.20;28.70;;;11.80;99.90;;;;;;4985153;28;20186;-77
2023/05/07 08:14:43;;;;;;;43.42;28.40;;;11.80;99.90;;;;;;4976486;28;20185;-78
2023/05/07 08:17:10;;;;;;;42.10;29.13;;;11.80;99.90;;;;;;4976404;28;20276;-78
2023/05/07 08:19:37;;;;;;;42.70;28.33;;;11.80;99.90;;;;;;4971068;28;20185;-80
2023/05/07 08:22:05;;;;;;;43.10;29.30;;;11.80;99.90;;;;;;4968703;28;20256;-79
2023/05/07 08:24:31;;;;;;;45.40;28.45;;;11.90;99.90;;;;;;4976736;28;20632;-79
2023/05/07 08:26:57;;;;;;;44.20;28.92;;;11.90;99.90;;;;;;4975334;28;20260;-80
2023/05/07 08:29:23;;;;;;;40.45;27.73;;;12.00;99.90;;;;;;4992353;28;20646;-80
2023/05/07 08:31:49;;;;;;;42.08;28.92;;;12.00;99.90;;;;;;4975558;28;20224;-80
2023/05/07 08:34:15;;;;;;;45.08;29.05;;;12.00;99.90;;;;;;4979712;28;20177;-79
2023/05/07 08:36:46;;;;;;;45.47;28.85;;;12.00;99.90;;;;;;4979945;28;20204;-80
2023/05/07 08:39:17;;;;;;;42.03;28.88;;;12.10;99.90;;;;;;4995814;28;20272;-79
2023/05/07 08:41:47;;;;;;;43.55;28.80;;;12.10;99.90;;;;;;4979577;28;20307;-80
2023/05/07 08:44:14;;;;;;;42.78;29.10;;;12.10;99.90;;;;;;4985510;28;20221;-80
2023/05/07 08:46:43;;;;;;;40.72;28.70;;;12.10;99.90;;;;;;4976022;28;20706;-80
2023/05/07 08:49:09;;;;;;;43.53;29.52;;;12.20;99.90;;;;;;4976354;28;20222;-80
2023/05/07 08:51:36;;;;;;;39.60;27.40;;;12.20;99.90;;;;;;4975556;28;20270;-79
2023/05/07 08:54:02;;;;;;;43.10;27.75;;;12.20;99.90;;;;;;4991463;28;20277;-79
2023/05/07 08:56:31;;;;;;;42.15;28.30;;;12.20;99.90;;;;;;4976332;28;20209;-79
2023/05/07 08:58:58;;;;;;;42.05;28.30;;;12.30;99.90;;;;;;4960082;28;20262;-79
2023/05/07 09:01:26;;;;;;;41.17;27.88;;;12.30;99.90;;;;;;4959803;28;20583;-79
2023/05/07 09:03:53;;;;;;;41.75;29.05;;;12.40;99.90;;;;;;4975744;28;20188;-80
2023/05/07 09:06:20;;;;;;;39.55;26.73;;;12.40;99.90;;;;;;4975920;28;20264;-80
2023/05/07 09:08:51;;;;;;;42.08;28.30;;;12.50;99.90;;;;;;4975707;28;20537;-80
2023/05/07 09:11:24;;;;;;;40.33;28.02;;;12.50;99.90;;;;;;4975467;28;20209;-79
2023/05/07 09:13:57;;;;;;;42.60;27.48;;;12.60;99.90;;;;;;4975806;28;20178;-79
2023/05/07 09:16:25;;;;;;;42.63;28.73;;;12.60;99.90;;;;;;4959219;28;20204;-79
2023/05/07 09:18:53;;;;;;;40.97;27.17;;;12.60;99.90;;;;;;4975697;28;20278;-79
2023/05/07 09:21:20;;;;;;;44.35;28.15;;;12.70;99.90;;;;;;4974814;28;20193;-79
2023/05/07 09:23:53;;;;;;;43.10;27.48;;;12.70;99.90;;;;;;4975729;28;20185;-78
2023/05/07 09:26:22;;;;;;;43.55;28.88;;;12.70;99.90;;;;;;4988139;28;20276;-79
2023/05/07 09:28:48;;;;;;;45.00;28.95;;;12.80;99.90;;;;;;4958139;28;20336;-78
2023/05/07 09:31:14;;;;;;;40.70;27.45;;;12.80;99.90;;;;;;4991609;28;20216;-79
2023/05/07 09:33:41;;;;;;;41.17;27.05;;;12.90;99.90;;;;;;4991472;28;20189;-79
2023/05/07 09:36:10;;;;;;;41.55;28.08;;;12.90;99.90;;;;;;4974895;28;20264;-79
2023/05/07 09:38:38;;;;;;;45.03;28.50;;;12.90;99.90;;;;;;4959413;28;20208;-79
2023/05/07 09:41:09;;;;;;;41.70;28.17;;;13.00;99.90;;;;;;4959647;28;20186;-79
2023/05/07 09:43:54;;;;;;;45.13;29.67;;;13.00;99.90;;;;;;4975509;28;20187;-80
2023/05/07 09:46:31;;;;;;;40.95;28.05;;;13.10;99.90;;;;;;4974554;28;20185;-79
2023/05/07 09:49:01;;;;;;;43.70;28.38;;;13.10;99.90;;;;;;4975664;28;20181;-79
2023/05/07 09:51:35;;;;;;;40.13;27.65;;;13.10;99.90;;;;;;4974881;28;20233;-79
2023/05/07 09:54:03;;;;;;;40.17;27.13;;;13.20;99.90;;;;;;4975383;28;20184;-79
2023/05/07 09:56:31;;;;;;;41.47;27.27;;;13.30;99.90;;;;;;4975460;28;20197;-79
2023/05/07 09:59:02;;;;;;;39.08;26.60;;;13.30;99.90;;;;;;4987945;28;20209;-79
2023/05/07 10:01:31;;;;;;;45.25;28.08;;;13.30;99.90;;;;;;4972235;28;20229;-79
2023/05/07 10:03:59;;;;;;;41.90;27.17;;;13.40;99.90;;;;;;4940369;28;20286;-80
2023/05/07 10:06:28;;;;;;;35.05;25.55;;;13.40;99.90;;;;;;4956140;28;20202;-79
2023/05/07 10:08:56;;;;;;;39.45;26.08;;;13.50;99.90;;;;;;4962060;28;20196;-78
2023/05/07 10:11:23;;;;;;;37.63;26.90;;;13.60;99.90;;;;;;4974802;28;20220;-78
2023/05/07 10:13:49;;;;;;;38.08;26.10;;;13.60;99.90;;;;;;4975431;28;20650;-80
2023/05/07 10:16:16;;;;;;;37.72;25.80;;;13.60;99.90;;;;;;4959617;28;20212;-79
2023/05/07 10:18:46;;;;;;;36.45;25.17;;;13.70;99.90;;;;;;4975414;28;20189;-78
2023/05/07 10:21:23;;;;;;;37.92;25.27;;;13.70;99.90;;;;;;4974279;28;20204;-77
2023/05/07 10:23:58;;;;;;;35.70;25.23;;;13.80;99.90;;;;;;4975411;28;20185;-79
2023/05/07 10:26:27;;;;;;;34.28;25.45;;;13.70;99.90;;;;;;5012116;28;20673;-78
2023/05/07 10:29:11;;;;;;;37.33;25.20;;;13.80;99.90;;;;;;4972853;28;20307;-78
2023/05/07 10:31:55;;;;;;;36.22;24.20;;;13.80;99.90;;;;;;4993946;28;20228;-79
2023/05/07 10:34:26;;;;;;;33.17;24.05;;;13.90;99.90;;;;;;4962845;28;20552;-78
2023/05/07 10:36:53;;;;;;;35.88;25.17;;;13.90;99.90;;;;;;4979438;28;20195;-78
2023/05/07 10:39:21;;;;;;;38.90;25.33;;;13.90;99.90;;;;;;4962960;28;20181;-78
2023/05/07 10:41:48;;;;;;;36.25;25.30;;;14.00;99.90;;;;;;4960925;28;20273;-79
2023/05/07 10:44:29;;;;;;;32.35;24.17;;;14.00;99.90;;;;;;4978762;28;20189;-78
2023/05/07 10:47:11;;;;;;;34.33;24.30;;;14.00;99.90;;;;;;4978643;28;20205;-78
2023/05/07 10:49:41;;;;;;;28.60;23.23;;;14.10;99.90;;;;;;4978378;28;20551;-78
2023/05/07 10:52:19;;;;;;;32.67;23.90;;;14.10;99.90;;;;;;4977255;28;20267;-79
2023/05/07 10:55:24;;;;;;;33.10;24.45;;;14.20;99.90;;;;;;4978109;28;20185;-78
2023/05/07 10:58:26;;;;;;;32.45;24.38;;;14.20;99.90;;;;;;4978507;28;20181;-79
2023/05/07 11:01:01;;;;;;;31.85;24.13;;;14.30;99.90;;;;;;4978178;28;20185;-79
2023/05/07 11:03:33;;;;;;;35.97;23.38;;;14.40;99.90;;;;;;4962447;28;20539;-79
2023/05/07 11:06:16;;;;;;;30.90;22.75;;;14.50;99.90;;;;;;4978194;28;20186;-80
2023/05/07 11:08:52;;;;;;;31.13;23.83;;;14.70;99.90;;;;;;4979090;28;20181;-80
2023/05/07 11:11:40;;;;;;;30.58;22.05;;;14.90;99.90;;;;;;4978157;28;20311;-78
2023/05/07 11:14:13;;;;;;;32.17;22.77;;;15.00;99.90;;;;;;4977404;28;20192;-77
2023/05/07 11:16:46;;;;;;;30.48;22.42;;;15.20;99.90;;;;;;4963039;28;20181;-78
2023/05/07 11:19:54;;;;;;;30.92;22.67;;;15.30;99.90;;;;;;4978022;28;20225;-78
2023/05/07 11:22:39;;;;;;;30.33;22.38;;;15.30;99.90;;;;;;4977485;28;20185;-79
2023/05/07 11:25:30;;;;;;;31.52;22.52;;;15.40;99.90;;;;;;4976704;28;20665;-79
2023/05/07 11:28:17;;;;;;;29.15;21.52;;;15.50;99.90;;;;;;4964222;28;20327;-78
2023/05/07 11:30:50;;;;;;;29.00;21.45;;;15.60;99.90;;;;;;4962631;28;20232;-78
2023/05/07 11:33:19;;;;;;;30.25;22.23;;;15.60;99.90;;;;;;4977638;28;20186;-80
2023/05/07 11:35:45;;;;;;;26.90;20.50;;;15.70;99.90;;;;;;4991002;28;20634;-78
2023/05/07 11:38:13;;;;;;;34.00;20.65;;;15.70;99.90;;;;;;4977133;28;20201;-80
2023/05/07 11:40:53;;;;;;;29.35;21.13;;;15.80;99.90;;;;;;4993568;28;20244;-78
2023/05/07 11:43:19;;;;;;;27.30;20.08;;;15.80;99.90;;;;;;4993711;28;20181;-78
2023/05/07 11:45:46;;;;;;;24.98;20.25;;;15.80;99.90;;;;;;4992416;28;20188;-78
2023/05/07 11:48:13;;;;;;;25.20;19.10;;;15.90;99.90;;;;;;4978390;28;20188;-78
2023/05/07 11:50:58;;;;;;;27.10;21.63;;;16.00;99.90;;;;;;4977411;28;20209;-78
2023/05/07 11:53:26;;;;;;;26.73;20.38;;;16.10;99.90;;;;;;4993989;28;20279;-78
2023/05/07 11:55:58;;;;;;;24.85;19.60;;;16.10;99.90;;;;;;4993752;28;20189;-79
2023/05/07 11:58:28;;;;;;;25.63;19.80;;;16.20;99.90;;;;;;4994625;28;20188;-78
2023/05/07 12:00:54;;;;;;;24.55;19.67;;;16.30;99.90;;;;;;4994465;28;20185;-77
2023/05/07 12:03:20;;;;;;;24.52;20.00;;;16.30;99.90;;;;;;4976894;28;20192;-78
2023/05/07 12:05:47;;;;;;;24.85;20.17;;;16.40;99.90;;;;;;4994129;28;20268;-78
2023/05/07 12:08:17;;;;;;;24.52;19.17;;;16.50;99.90;;;;;;4975594;28;20196;-78
2023/05/07 12:10:44;;;;;;;28.95;19.73;;;16.60;99.90;;;;;;4994248;28;20213;-79
2023/05/07 12:13:21;;;;;;;22.83;18.25;;;16.70;99.90;;;;;;4976655;28;20185;-78
2023/05/07 12:15:51;;;;;;;23.38;18.48;;;16.70;99.90;;;;;;4994178;28;20192;-78
2023/05/07 12:18:17;;;;;;;23.77;18.45;;;16.80;99.90;;;;;;4975959;28;20196;-78
2023/05/07 12:20:43;;;;;;;23.63;19.17;;;16.80;99.90;;;;;;4993915;28;20181;-79
2023/05/07 12:23:10;;;;;;;24.50;19.17;;;17.00;99.90;;;;;;4960441;28;20244;-79
2023/05/07 12:25:37;;;;;;;23.35;18.38;;;16.90;99.90;;;;;;4976253;28;20177;-78
2023/05/07 12:28:06;;;;;;;22.55;18.08;;;16.90;99.90;;;;;;4993745;28;20283;-79
2023/05/07 12:30:37;;;;;;;25.23;18.40;;;17.00;99.90;;;;;;4993806;28;20215;-79
2023/05/07 12:33:03;;;;;;;22.23;18.63;;;17.00;99.90;;;;;;4993825;28;20223;-78